Time;durP1;ratioP1;P1;durP2;ratioP2;P2;SDS_P1;SDS_P2;PMS_P1;PMS_P2;Temp;Humidity;BMP_temperature;BMP_pressure;BME280_temperature;BME280_humidity;BME280_pressure;Samples;Min_cycle;Max_cycle;Signal;HPM_P1;HPM_P2
2021/05/27 00:00:12;;;;;;;6.30;2.70;;;;;;;12.16;67.39;98862.22;5078824;28;20135;-93
2021/05/27 00:02:38;;;;;;;5.75;2.70;;;;;;;12.17;67.48;98869.31;5090222;28;20044;-92
2021/05/27 00:05:04;;;;;;;7.45;3.00;;;;;;;12.16;67.31;98872.88;5090456;28;20044;-93
2021/05/27 00:07:30;;;;;;;6.50;2.83;;;;;;;12.02;67.66;98857.34;5089509;28;20047;-92
2021/05/27 00:09:57;;;;;;;8.45;3.10;;;;;;;12.04;67.65;98869.69;5086792;28;20048;-91
2021/05/27 00:12:23;;;;;;;6.80;2.80;;;;;;;11.90;68.02;98843.44;5086847;28;20047;-92
2021/05/27 00:14:49;;;;;;;7.45;2.85;;;;;;;11.89;67.59;98841.72;5088847;28;20497;-92
2021/05/27 00:17:15;;;;;;;5.80;2.53;;;;;;;11.97;67.57;98865.47;5090957;28;20071;-91
2021/05/27 00:19:41;;;;;;;8.80;2.83;;;;;;;11.84;67.95;98848.97;5085157;28;20036;-93
2021/05/27 00:22:07;;;;;;;5.82;2.78;;;;;;;11.80;67.93;98847.31;5087230;28;20035;-93
2021/05/27 00:24:33;;;;;;;7.38;2.85;;;;;;;11.91;67.73;98855.00;5088432;28;20097;-90
2021/05/27 00:27:00;;;;;;;8.45;3.00;;;;;;;11.85;68.12;98864.00;5086444;28;20058;-92
2021/05/27 00:29:25;;;;;;;8.75;3.00;;;;;;;11.73;68.75;98861.72;5087180;28;20515;-93
2021/05/27 00:31:51;;;;;;;8.55;2.75;;;;;;;11.65;69.47;98856.63;5085432;28;20123;-90
2021/05/27 00:34:17;;;;;;;8.93;2.90;;;;;;;11.55;69.78;98855.16;5085671;28;20089;-90
2021/05/27 00:36:43;;;;;;;6.57;3.03;;;;;;;11.51;69.92;98848.16;5082645;28;20048;-93
2021/05/27 00:39:09;;;;;;;6.47;2.72;;;;;;;11.46;70.09;98858.97;5085813;28;20032;-92
2021/05/27 00:41:34;;;;;;;10.30;2.80;;;;;;;11.51;70.58;98874.81;5086643;28;20060;-93
2021/05/27 00:44:01;;;;;;;10.07;2.90;;;;;;;11.50;70.19;98863.28;5080505;28;20363;-92
2021/05/27 00:46:27;;;;;;;9.45;2.80;;;;;;;11.49;69.76;98848.25;5083172;28;20040;-92
2021/05/27 00:51:53;;;;;;;7.88;2.80;;;;;;;11.55;69.67;98870.28;5089932;27;20359;-91
2021/05/27 00:54:20;;;;;;;6.85;3.08;;;;;;;11.53;69.46;98854.31;5090270;28;20509;-93
2021/05/27 00:56:47;;;;;;;7.70;3.10;;;;;;;11.54;69.51;98857.84;5090532;28;20363;-92
2021/05/27 00:59:13;;;;;;;7.82;2.80;;;;;;;11.44;69.52;98855.47;5090057;28;20127;-93
2021/05/27 01:01:39;;;;;;;7.50;3.15;;;;;;;11.40;69.92;98856.47;5088734;28;20569;-92
2021/05/27 01:04:06;;;;;;;5.80;3.22;;;;;;;11.37;70.12;98859.25;5090070;28;20038;-92
2021/05/27 01:06:32;;;;;;;8.82;3.30;;;;;;;11.36;69.87;98853.94;5089270;28;20484;-92
2021/05/27 01:09:01;;;;;;;6.97;2.70;;;;;;;11.43;70.07;98876.84;5090360;28;20040;-91
2021/05/27 01:11:27;;;;;;;9.13;3.33;;;;;;;11.26;70.49;98862.22;5090042;28;20518;-92
2021/05/27 01:13:53;;;;;;;6.75;2.90;;;;;;;11.14;70.54;98846.56;5089946;28;20127;-93
2021/05/27 01:16:20;;;;;;;4.68;2.70;;;;;;;11.05;70.83;98841.50;5088766;28;20070;-92
2021/05/27 01:18:47;;;;;;;11.73;3.20;;;;;;;11.05;71.13;98849.50;5090395;28;20576;-92
2021/05/27 01:21:13;;;;;;;8.60;3.00;;;;;;;11.05;71.46;98865.47;5090366;28;20377;-91
2021/05/27 01:23:40;;;;;;;9.10;2.60;;;;;;;11.01;70.99;98861.13;5090347;28;20048;-91
2021/05/27 01:26:09;;;;;;;6.93;2.63;;;;;;;10.98;70.91;98870.09;5089859;28;20047;-91
2021/05/27 01:28:36;;;;;;;;;;;;;;;11.04;71.28;98869.91;5090327;28;20052;-93
2021/05/27 01:31:03;;;;;;;5.88;2.85;;;;;;;10.97;71.20;98868.31;5087807;28;19920;-92
2021/05/27 01:33:29;;;;;;;7.88;2.75;;;;;;;11.03;70.77;98868.16;5089505;28;20494;-93
2021/05/27 01:35:56;;;;;;;7.03;2.60;;;;;;;11.06;71.38;98885.81;5089575;28;20035;-91
2021/05/27 01:38:23;;;;;;;9.70;3.00;;;;;;;10.89;71.41;98857.91;5089793;28;20037;-93
2021/05/27 01:40:51;;;;;;;7.63;2.92;;;;;;;10.86;72.05;98865.06;5083588;28;20039;-89
2021/05/27 01:43:19;;;;;;;7.38;2.80;;;;;;;10.80;72.23;98866.13;5089433;28;20093;-92
2021/05/27 01:45:45;;;;;;;10.35;3.13;;;;;;;10.78;72.98;98870.63;5086650;28;20062;-91
2021/05/27 01:48:11;;;;;;;7.10;3.05;;;;;;;10.78;72.76;98872.38;5089433;28;20489;-92
2021/05/27 01:50:41;;;;;;;9.82;3.30;;;;;;;10.77;72.72;98863.53;5089043;28;20532;-93
2021/05/27 01:53:07;;;;;;;7.10;3.25;;;;;;;10.63;72.64;98842.63;5089467;28;20045;-91
2021/05/27 01:55:35;;;;;;;7.57;2.88;;;;;;;10.67;72.54;98846.09;5089588;28;20044;-92
2021/05/27 01:58:01;;;;;;;8.95;3.50;;;;;;;10.58;72.91;98844.56;5089105;28;20075;-91
2021/05/27 02:00:29;;;;;;;11.52;3.30;;;;;;;10.50;73.22;98837.69;5087548;28;20039;-92
2021/05/27 02:02:55;;;;;;;5.60;2.90;;;;;;;10.67;72.36;98835.47;5076961;28;20048;-92
2021/05/27 02:05:21;;;;;;;8.00;3.10;;;;;;;10.59;72.61;98826.81;5075615;28;20041;-91
2021/05/27 02:07:47;;;;;;;7.15;3.03;;;;;;;10.61;72.82;98828.50;5075544;28;20055;-93
2021/05/27 02:10:13;;;;;;;7.72;3.08;;;;;;;10.59;72.85;98817.03;5075416;28;20039;-92
2021/05/27 02:12:39;;;;;;;6.60;3.25;;;;;;;10.67;73.07;98827.47;5075303;28;20045;-90
2021/05/27 02:15:08;;;;;;;6.97;3.00;;;;;;;10.65;73.18;98837.28;5073793;28;20432;-91
2021/05/27 02:17:34;;;;;;;7.37;3.10;;;;;;;10.70;73.54;98843.34;5075258;28;20090;-90
2021/05/27 02:20:00;;;;;;;7.07;3.15;;;;;;;10.59;73.80;98824.16;5075245;28;20033;-92
2021/05/27 02:22:26;;;;;;;5.57;2.95;;;;;;;10.54;73.91;98808.31;5075526;28;20040;-90
2021/05/27 02:24:51;;;;;;;9.25;3.50;;;;;;;10.77;74.10;98830.75;5075189;28;20486;-92
2021/05/27 02:27:17;;;;;;;12.18;3.42;;;;;;;10.82;74.09;98831.50;5074812;28;20072;-91
2021/05/27 02:29:44;;;;;;;7.28;3.25;;;;;;;10.93;73.09;98799.28;5074952;28;20092;-93
2021/05/27 02:32:11;;;;;;;7.63;4.03;;;;;;;10.98;73.30;98818.66;5073488;28;20043;-91
2021/05/27 02:34:37;;;;;;;9.23;3.10;;;;;;;11.00;73.82;98817.69;5075150;28;20052;-91
2021/05/27 02:37:03;;;;;;;8.75;3.55;;;;;;;11.03;73.13;98812.28;5075224;28;20059;-93
2021/05/27 02:39:29;;;;;;;7.47;3.40;;;;;;;10.97;73.41;98828.41;5073425;28;20041;-93
2021/05/27 02:41:55;;;;;;;7.55;3.13;;;;;;;10.86;73.09;98814.53;5074707;28;20033;-90
2021/05/27 02:44:21;;;;;;;5.72;3.30;;;;;;;10.83;73.77;98811.97;5074487;28;20040;-92
2021/05/27 02:46:47;;;;;;;9.52;3.20;;;;;;;10.76;73.77;98797.97;5073074;28;20170;-92
2021/05/27 02:49:14;;;;;;;6.72;3.20;;;;;;;10.72;73.29;98790.97;5074661;28;20098;-92
2021/05/27 02:51:40;;;;;;;6.68;3.17;;;;;;;10.79;73.61;98819.16;5073368;28;20505;-92
2021/05/27 02:54:06;;;;;;;8.00;2.80;;;;;;;10.77;73.87;98813.00;5074878;28;20127;-92
2021/05/27 02:56:31;;;;;;;6.53;2.88;;;;;;;10.66;74.01;98810.63;5074415;28;20110;-91
2021/05/27 02:58:57;;;;;;;6.93;3.00;;;;;;;10.67;74.55;98806.22;5074136;28;20123;-91
2021/05/27 03:01:23;;;;;;;8.98;2.97;;;;;;;10.67;74.06;98817.72;5073386;28;20067;-93
2021/05/27 03:03:49;;;;;;;6.70;3.03;;;;;;;10.58;73.59;98782.50;5071553;28;20037;-91
2021/05/27 03:06:16;;;;;;;6.50;2.90;;;;;;;10.72;73.75;98793.66;5074407;28;20523;-92
2021/05/27 03:08:43;;;;;;;8.43;2.80;;;;;;;10.75;74.26;98805.97;5073205;28;20082;-92
2021/05/27 03:11:09;;;;;;;5.65;3.00;;;;;;;10.80;74.14;98810.28;5074456;28;20428;-91
2021/05/27 03:13:35;;;;;;;7.93;3.13;;;;;;;10.67;73.85;98788.47;5073399;28;20044;-89
2021/05/27 03:16:01;;;;;;;7.55;3.17;;;;;;;10.69;73.67;98789.28;5073095;28;20037;-92
2021/05/27 03:18:28;;;;;;;7.60;3.20;;;;;;;10.72;73.83;98788.31;5074416;28;20047;-91
2021/05/27 03:20:54;;;;;;;8.20;4.05;;;;;;;10.65;74.51;98786.75;5072834;28;20417;-91
2021/05/27 03:23:21;;;;;;;7.38;2.80;;;;;;;10.72;74.17;98806.06;5074429;28;20120;-92
2021/05/27 03:25:47;;;;;;;8.85;3.22;;;;;;;10.66;74.09;98788.50;5072653;28;20048;-91
2021/05/27 03:28:13;;;;;;;7.60;3.63;;;;;;;10.58;74.17;98803.75;5073925;28;20402;-91
2021/05/27 03:30:39;;;;;;;8.55;3.47;;;;;;;10.65;74.08;98816.88;5072187;28;20124;-92
2021/05/27 03:33:05;;;;;;;10.02;3.03;;;;;;;10.52;74.34;98802.16;5074013;28;20064;-91
2021/05/27 03:35:31;;;;;;;12.80;3.75;;;;;;;10.51;74.51;98812.84;5073831;28;20110;-92
2021/05/27 03:37:57;;;;;;;9.40;3.30;;;;;;;10.38;74.48;98789.22;5073883;28;20044;-92
2021/05/27 03:40:24;;;;;;;5.90;3.00;;;;;;;10.40;74.62;98806.00;5073849;28;20773;-92
2021/05/27 03:42:53;;;;;;;10.40;3.47;;;;;;;10.39;74.35;98792.78;5074213;28;20544;-91
2021/05/27 03:45:21;;;;;;;10.80;3.37;;;;;;;10.45;74.61;98812.09;5072475;28;20131;-91
2021/05/27 03:47:47;;;;;;;7.80;3.30;;;;;;;10.48;74.58;98809.34;5073767;28;20048;-90
2021/05/27 03:50:15;;;;;;;7.55;3.35;;;;;;;10.46;74.67;98803.19;5073409;28;20051;-92
2021/05/27 03:52:41;;;;;;;10.77;3.42;;;;;;;10.43;74.49;98800.63;5074148;28;20040;-92
2021/05/27 03:55:09;;;;;;;10.90;3.50;;;;;;;10.44;74.81;98802.34;5073428;28;20367;-91
2021/05/27 03:57:36;;;;;;;9.80;4.10;;;;;;;10.45;75.14;98797.91;5072300;28;20071;-93
2021/05/27 04:03:06;;;;;;;7.35;3.13;;;;;;;10.53;74.88;98803.03;5123174;27;20370;-91
2021/05/27 04:08:31;;;;;;;9.20;3.30;;;;;;;10.62;74.92;98818.72;5134321;27;20348;-90
2021/05/27 04:10:57;;;;;;;7.93;3.00;;;;;;;10.69;74.92;98822.97;5137673;27;20074;-92
2021/05/27 04:13:23;;;;;;;6.75;3.65;;;;;;;10.60;75.04;98820.56;5135286;27;20120;-91
2021/05/27 04:15:50;;;;;;;8.63;3.08;;;;;;;10.63;75.18;98828.47;5137156;27;20059;-90
2021/05/27 04:18:17;;;;;;;6.93;3.40;;;;;;;10.72;75.38;98838.00;5139396;27;20035;-91
2021/05/27 04:20:46;;;;;;;7.88;3.22;;;;;;;10.67;75.05;98820.38;5132392;27;20059;-91
2021/05/27 04:23:14;;;;;;;9.63;3.55;;;;;;;10.71;74.96;98818.47;5136906;27;20065;-92
2021/05/27 04:25:41;;;;;;;6.47;2.83;;;;;;;10.72;74.97;98830.00;5134995;27;20036;-90
2021/05/27 04:28:07;;;;;;;10.23;3.95;;;;;;;10.81;75.34;98840.41;5133987;27;20040;-91
2021/05/27 04:33:33;;;;;;;8.50;3.58;;;;;;;10.87;75.15;98846.44;5090080;27;20394;-92
2021/05/27 04:35:59;;;;;;;8.50;3.92;;;;;;;10.87;74.99;98832.25;5090213;28;20131;-93
2021/05/27 04:38:25;;;;;;;9.20;4.65;;;;;;;10.92;74.42;98843.63;5090518;28;20119;-92
2021/05/27 04:40:51;;;;;;;12.27;5.30;;;;;;;10.91;74.82;98841.91;5090181;28;20044;-92
2021/05/27 04:43:18;;;;;;;18.63;7.80;;;;;;;10.84;75.07;98821.69;5090286;28;20049;-93
2021/05/27 04:45:44;;;;;;;19.25;9.10;;;;;;;10.80;75.04;98820.91;5088662;28;20055;-91
2021/05/27 04:48:12;;;;;;;19.90;11.13;;;;;;;10.81;75.12;98832.41;5089937;28;20489;-91
2021/05/27 04:50:40;;;;;;;23.13;11.87;;;;;;;10.94;74.69;98843.59;5088874;28;20071;-93
2021/05/27 04:53:07;;;;;;;34.70;15.10;;;;;;;10.96;74.17;98845.31;5087335;28;20059;-91
2021/05/27 04:55:33;;;;;;;40.05;19.33;;;;;;;11.09;74.03;98857.34;5088591;28;20123;-92
2021/05/27 04:57:59;;;;;;;39.38;18.65;;;;;;;11.14;73.31;98841.25;5094017;28;20085;-91
2021/05/27 05:00:26;;;;;;;43.05;20.60;;;;;;;11.55;72.08;98863.16;5088489;28;20047;-94
2021/05/27 05:02:53;;;;;;;37.05;16.00;;;;;;;11.99;69.78;98839.66;5089402;28;20116;-91
2021/05/27 05:05:19;;;;;;;61.30;27.55;;;;;;;12.66;68.23;98832.97;5089706;28;20048;-92
2021/05/27 05:07:48;;;;;;;47.38;18.45;;;;;;;13.27;65.77;98833.47;5089825;28;20123;-91
2021/05/27 05:10:16;;;;;;;35.92;16.90;;;;;;;14.12;62.46;98836.47;5088326;28;20124;-92
2021/05/27 05:15:42;;;;;;;13.45;6.03;;;;;;;15.51;57.77;98849.28;5088052;27;20381;-92
2021/05/27 05:18:10;;;;;;;11.75;5.38;;;;;;;15.75;56.02;98833.91;5090494;28;20052;-91
2021/05/27 05:20:37;;;;;;;13.50;5.32;;;;;;;15.99;55.66;98846.13;5090399;28;20044;-93
2021/05/27 05:23:04;;;;;;;19.20;5.20;;;;;;;16.06;55.63;98830.59;5090001;28;20036;-90
2021/05/27 05:25:31;;;;;;;11.18;4.50;;;;;;;16.10;54.88;98824.16;5090333;28;20135;-91
2021/05/27 05:27:58;;;;;;;7.53;4.60;;;;;;;16.28;55.19;98841.16;5090163;28;20547;-93
2021/05/27 05:30:26;;;;;;;9.50;4.65;;;;;;;16.32;54.64;98820.41;5089021;28;20064;-92
2021/05/27 05:32:53;;;;;;;10.30;3.80;;;;;;;16.37;54.37;98811.22;5089439;28;20040;-91
2021/05/27 05:35:20;;;;;;;7.80;3.60;;;;;;;16.32;55.12;98823.97;5090087;28;20569;-92
2021/05/27 05:37:46;;;;;;;7.82;3.17;;;;;;;16.25;55.52;98821.69;5089729;28;20123;-91
2021/05/27 05:40:15;;;;;;;7.18;3.08;;;;;;;16.21;55.58;98827.19;5090630;28;20048;-90
2021/05/27 05:42:41;;;;;;;8.68;3.20;;;;;;;16.09;55.33;98811.69;5089612;28;20119;-90
2021/05/27 05:45:10;;;;;;;7.38;3.13;;;;;;;15.84;56.11;98830.78;5088988;28;20063;-92
2021/05/27 05:47:36;;;;;;;12.43;3.22;;;;;;;15.22;58.50;98824.66;5086957;28;20085;-91
2021/05/27 05:50:04;;;;;;;4.97;2.70;;;;;;;15.27;58.04;98817.31;5091642;28;20040;-92
2021/05/27 05:52:30;;;;;;;6.72;3.22;;;;;;;15.43;56.70;98805.88;5088367;28;20052;-91
2021/05/27 05:54:56;;;;;;;5.25;2.95;;;;;;;16.25;54.96;98819.00;5090121;28;20078;-92
2021/05/27 05:57:22;;;;;;;9.27;3.10;;;;;;;16.52;53.73;98806.84;5089448;28;20080;-91
2021/05/27 05:59:48;;;;;;;7.82;3.83;;;;;;;16.73;52.00;98812.09;5087334;28;20067;-90
2021/05/27 06:02:14;;;;;;;9.95;4.40;;;;;;;16.94;52.10;98804.78;5088259;28;20032;-90
2021/05/27 06:04:39;;;;;;;7.10;3.50;;;;;;;17.32;51.69;98820.66;5089006;28;20036;-92
2021/05/27 06:07:06;;;;;;;9.07;3.47;;;;;;;17.52;50.70;98822.25;5089144;28;20043;-91
2021/05/27 06:09:32;;;;;;;11.50;5.43;;;;;;;17.63;50.03;98817.16;5089022;28;20044;-91
2021/05/27 06:11:59;;;;;;;9.50;3.83;;;;;;;17.80;49.66;98824.28;5088968;28;20040;-91
2021/05/27 06:14:25;;;;;;;9.68;3.63;;;;;;;17.91;49.40;98839.88;5089295;28;20048;-93
2021/05/27 06:16:50;;;;;;;12.00;3.63;;;;;;;17.92;49.45;98831.72;5089422;28;20040;-94
2021/05/27 06:19:16;;;;;;;8.65;3.50;;;;;;;17.80;49.50;98822.50;5090279;28;20131;-93
2021/05/27 06:21:42;;;;;;;8.27;3.22;;;;;;;17.90;50.01;98832.78;5089735;28;20094;-91
2021/05/27 06:24:09;;;;;;;10.90;3.35;;;;;;;18.05;49.65;98832.75;5090055;28;20047;-92
2021/05/27 06:26:35;;;;;;;9.55;3.38;;;;;;;18.04;48.83;98830.16;5078469;28;20036;-92
2021/05/27 06:29:01;;;;;;;8.05;2.97;;;;;;;17.99;48.77;98827.72;5075978;28;20462;-91
2021/05/27 06:31:27;;;;;;;8.40;3.35;;;;;;;18.10;49.02;98828.94;5075418;28;20128;-92
2021/05/27 06:33:53;;;;;;;6.70;2.88;;;;;;;18.43;49.20;98821.63;5076320;28;20143;-94
2021/05/27 06:36:19;;;;;;;7.40;3.20;;;;;;;18.65;48.55;98818.53;5076061;28;20048;-92
2021/05/27 06:38:46;;;;;;;7.85;2.92;;;;;;;18.81;47.99;98825.72;5075891;28;20090;-92
2021/05/27 06:41:15;;;;;;;7.03;3.08;;;;;;;18.98;47.62;98816.63;5075921;28;20490;-90
2021/05/27 06:43:41;;;;;;;7.10;3.42;;;;;;;19.22;46.96;98834.00;5074948;28;20106;-92
2021/05/27 06:46:07;;;;;;;10.15;3.13;;;;;;;19.06;46.79;98823.31;5073786;28;20158;-92
2021/05/27 06:48:32;;;;;;;7.32;2.80;;;;;;;19.21;46.63;98843.03;5075895;28;20064;-92
2021/05/27 06:50:58;;;;;;;7.47;2.90;;;;;;;19.23;47.23;98842.94;5073315;28;20397;-93
2021/05/27 06:53:24;;;;;;;7.93;3.20;;;;;;;19.21;46.11;98824.16;5075824;28;20059;-93
2021/05/27 06:55:50;;;;;;;9.27;2.95;;;;;;;19.04;46.86;98827.03;5075597;28;20040;-90
2021/05/27 06:58:17;;;;;;;9.48;3.40;;;;;;;19.03;46.78;98826.16;5074825;28;20063;-90
2021/05/27 07:00:43;;;;;;;10.10;3.10;;;;;;;19.39;46.69;98849.16;5071470;28;20155;-90
2021/05/27 07:03:11;;;;;;;9.15;2.92;;;;;;;19.45;45.70;98843.38;5073919;28;20897;-88
2021/05/27 07:05:37;;;;;;;7.88;2.90;;;;;;;19.17;46.88;98837.94;5074226;28;20072;-90
2021/05/27 07:08:06;;;;;;;8.63;2.92;;;;;;;19.36;46.59;98830.44;5074678;28;20087;-92
2021/05/27 07:10:32;;;;;;;;;;;;;;;19.50;45.65;98845.78;5075409;28;20097;-92
2021/05/27 07:12:59;;;;;;;6.38;3.38;;;;;;;19.34;45.72;98835.06;5074823;28;19928;-89
2021/05/27 07:15:27;;;;;;;11.95;3.50;;;;;;;19.35;45.37;98841.34;5072374;28;20506;-92
2021/05/27 07:17:54;;;;;;;9.50;3.03;;;;;;;18.64;47.52;98848.25;5074744;28;20036;-91
2021/05/27 07:20:22;;;;;;;9.15;3.33;;;;;;;19.06;46.71;98836.78;5074942;28;20040;-92
2021/05/27 07:22:50;;;;;;;9.88;3.22;;;;;;;19.46;46.17;98826.22;5074912;28;20058;-91
2021/05/27 07:25:16;;;;;;;7.82;3.10;;;;;;;19.75;44.38;98845.13;5074761;28;20043;-91
2021/05/27 07:30:37;;;;;;;7.60;3.60;;;;;;;20.31;43.10;98845.97;5133832;27;20394;-91
2021/05/27 07:33:03;;;;;;;8.70;3.30;;;;;;;20.62;43.08;98843.97;5133893;27;20050;-94
2021/05/27 07:35:29;;;;;;;10.07;4.43;;;;;;;20.55;42.32;98834.50;5132808;27;20054;-94
2021/05/27 07:37:57;;;;;;;7.95;3.03;;;;;;;20.46;42.07;98841.41;5134578;27;20043;-92
2021/05/27 07:40:23;;;;;;;9.40;3.60;;;;;;;20.15;42.62;98836.31;5134585;27;20393;-93
2021/05/27 07:42:49;;;;;;;9.00;3.30;;;;;;;19.98;43.69;98829.31;5131521;27;20035;-92
2021/05/27 07:45:16;;;;;;;11.23;3.45;;;;;;;20.08;42.64;98834.00;5135668;27;20113;-93
2021/05/27 07:47:43;;;;;;;12.18;3.15;;;;;;;19.76;42.45;98821.72;5140510;27;20062;-93
2021/05/27 07:50:10;;;;;;;8.27;3.15;;;;;;;20.21;42.06;98836.78;5135581;27;20510;-91
2021/05/27 07:52:36;;;;;;;10.27;3.50;;;;;;;20.17;41.38;98823.53;5138738;27;20053;-91
2021/05/27 07:55:02;;;;;;;10.43;3.53;;;;;;;20.55;40.45;98823.72;5134132;27;20044;-91
2021/05/27 07:57:28;;;;;;;8.13;3.53;;;;;;;20.76;40.76;98829.53;5138399;27;20437;-93
2021/05/27 07:59:54;;;;;;;9.27;3.45;;;;;;;20.24;40.81;98820.34;5139554;27;20541;-93
2021/05/27 08:02:20;;;;;;;7.35;3.28;;;;;;;20.69;41.08;98836.34;5138156;27;20392;-91
2021/05/27 08:04:47;;;;;;;11.23;3.08;;;;;;;20.94;39.31;98808.50;5138911;27;20039;-92
2021/05/27 08:07:13;;;;;;;10.65;3.67;;;;;;;21.24;38.31;98816.31;5138954;27;20035;-91
2021/05/27 08:09:40;;;;;;;9.23;3.20;;;;;;;21.34;37.12;98811.13;5138049;27;20039;-92
2021/05/27 08:12:07;;;;;;;9.15;3.30;;;;;;;21.38;36.51;98788.25;5138764;27;20038;-92
2021/05/27 08:14:33;;;;;;;7.30;2.75;;;;;;;21.66;34.83;98789.03;5134551;27;20092;-93
2021/05/27 08:17:00;;;;;;;6.38;2.90;;;;;;;21.65;36.53;98799.00;5129059;27;20039;-91
2021/05/27 08:19:26;;;;;;;6.07;2.78;;;;;;;21.57;35.96;98803.22;5135757;27;20383;-94
2021/05/27 08:21:53;;;;;;;7.25;2.85;;;;;;;21.63;36.55;98800.09;5132340;27;20126;-93
2021/05/27 08:24:19;;;;;;;6.97;2.83;;;;;;;21.90;35.88;98808.03;5137413;27;20039;-93
2021/05/27 08:26:51;;;;;;;6.80;3.13;;;;;;;21.70;35.19;98793.25;5133436;27;20047;-93
2021/05/27 08:29:19;;;;;;;5.07;2.70;;;;;;;21.42;35.63;98791.66;5132407;27;20052;-92
2021/05/27 08:31:45;;;;;;;8.82;2.80;;;;;;;21.69;34.91;98789.69;5137060;27;20130;-93
2021/05/27 08:34:11;;;;;;;7.57;2.78;;;;;;;21.91;34.50;98790.84;5134454;27;20079;-92
2021/05/27 08:36:38;;;;;;;8.35;3.00;;;;;;;22.30;34.39;98799.72;5135440;27;20038;-93
2021/05/27 08:39:08;;;;;;;6.25;2.38;;;;;;;22.62;33.15;98789.16;5137021;27;20038;-93
2021/05/27 08:41:34;;;;;;;6.05;2.50;;;;;;;22.15;33.07;98782.72;5122069;27;20031;-92
2021/05/27 08:44:02;;;;;;;7.13;2.55;;;;;;;22.12;33.88;98782.94;5122378;27;20039;-92
2021/05/27 08:46:27;;;;;;;10.27;2.80;;;;;;;22.48;33.08;98781.19;5119198;27;20512;-92
2021/05/27 08:48:53;;;;;;;12.50;3.30;;;;;;;22.77;33.29;98777.13;5118734;27;20048;-92
2021/05/27 08:51:20;;;;;;;8.07;2.55;;;;;;;22.20;31.38;98783.25;5123924;27;20422;-94
2021/05/27 08:53:46;;;;;;;8.50;2.80;;;;;;;22.59;32.13;98794.78;5121928;27;20047;-94
2021/05/27 08:56:13;;;;;;;6.15;2.40;;;;;;;22.80;30.51;98794.16;5122845;27;20031;-92
2021/05/27 08:58:39;;;;;;;8.32;2.85;;;;;;;22.44;31.81;98774.28;5123584;27;20031;-94
2021/05/27 09:01:06;;;;;;;6.32;2.30;;;;;;;22.71;28.46;98776.75;5119146;27;20047;-95
2021/05/27 09:03:41;;;;;;;4.47;2.00;;;;;;;23.07;30.29;98786.59;5123079;27;20492;-92
2021/05/27 09:06:07;;;;;;;5.63;2.20;;;;;;;23.33;29.14;98797.25;5118862;28;20043;-92
2021/05/27 09:08:36;;;;;;;7.43;2.65;;;;;;;23.13;29.28;98772.56;5118440;27;20042;-93
2021/05/27 09:11:03;;;;;;;;;;;;;;;23.15;29.56;98789.56;5132394;27;20045;-92
2021/05/27 09:13:30;;;;;;;9.75;2.53;;;;;;;22.50;29.56;98785.53;5125167;27;19923;-92
2021/05/27 09:16:07;;;;;;;4.70;2.25;;;;;;;23.05;29.98;98779.56;5119251;27;20504;-94
2021/05/27 09:18:35;;;;;;;9.00;3.42;;;;;;;23.42;29.00;98779.38;5128103;27;20150;-91
2021/05/27 09:21:02;;;;;;;4.30;2.20;;;;;;;23.49;29.49;98784.19;5124814;27;20043;-93
2021/05/27 09:23:28;;;;;;;5.32;2.50;;;;;;;23.43;28.90;98754.81;5131651;27;20065;-94
2021/05/27 09:26:03;;;;;;;6.43;2.50;;;;;;;23.66;28.52;98752.97;5119195;27;20122;-90
2021/05/27 09:28:30;;;;;;;4.47;2.17;;;;;;;23.83;28.67;98767.91;5113631;28;20105;-93
2021/05/27 09:30:59;;;;;;;5.65;2.10;;;;;;;23.99;27.94;98759.38;5125311;27;20047;-94
2021/05/27 09:33:31;;;;;;;;;;;;;;;23.12;28.39;98775.41;5119269;28;20044;-94
2021/05/27 09:36:03;;;;;;;3.70;2.28;;;;;;;22.53;29.38;98763.63;5121759;27;19919;-94
2021/05/27 09:38:30;;;;;;;6.75;2.13;;;;;;;23.16;29.79;98766.00;5124700;27;20067;-95
2021/05/27 09:40:56;;;;;;;5.57;2.08;;;;;;;23.44;27.77;98748.41;5122732;27;20089;-92
2021/05/27 09:43:23;;;;;;;5.15;2.10;;;;;;;23.73;28.14;98756.06;5107025;27;20039;-94
2021/05/27 09:46:02;;;;;;;3.75;2.00;;;;;;;23.75;28.22;98756.78;5121530;27;20040;-93
2021/05/27 09:48:29;;;;;;;5.03;1.95;;;;;;;23.49;28.13;98748.06;5112265;27;20047;-94
2021/05/27 09:50:55;;;;;;;5.78;2.15;;;;;;;23.02;28.95;98755.41;5121733;27;20059;-93
2021/05/27 09:53:25;;;;;;;7.05;2.00;;;;;;;23.07;27.96;98732.34;5127484;27;20036;-92
2021/05/27 09:55:53;;;;;;;6.38;2.30;;;;;;;23.08;28.62;98754.94;5120953;27;20028;-92
2021/05/27 09:58:20;;;;;;;6.95;2.10;;;;;;;23.27;28.46;98729.91;5120823;27;20047;-90
2021/05/27 10:00:48;;;;;;;4.03;2.10;;;;;;;23.58;27.83;98742.72;5118800;27;20048;-93
2021/05/27 10:03:40;;;;;;;5.88;2.03;;;;;;;23.60;28.39;98749.91;5127029;27;20046;-90
2021/05/27 10:06:08;;;;;;;6.80;2.20;;;;;;;23.74;27.78;98736.91;5121327;27;20130;-92
2021/05/27 10:08:52;;;;;;;3.38;1.73;;;;;;;23.87;27.17;98739.50;5122394;27;20062;-90
2021/05/27 10:11:19;;;;;;;6.88;2.22;;;;;;;23.61;26.86;98733.47;5119388;27;20040;-92
2021/05/27 10:13:45;;;;;;;4.72;2.00;;;;;;;22.87;27.35;98714.06;5121586;27;20487;-93
2021/05/27 10:16:13;;;;;;;5.88;2.00;;;;;;;22.40;27.18;98724.88;5116362;28;20381;-93
2021/05/27 10:18:41;;;;;;;4.57;1.85;;;;;;;22.60;25.72;98712.53;5122328;27;20039;-93
2021/05/27 10:21:08;;;;;;;4.77;1.80;;;;;;;22.65;26.22;98706.75;5120358;27;20065;-91
2021/05/27 10:23:34;;;;;;;5.82;2.17;;;;;;;23.15;27.04;98710.91;5119739;27;20044;-91
2021/05/27 10:26:00;;;;;;;5.32;2.15;;;;;;;23.27;28.25;98705.47;5125486;27;20036;-91
2021/05/27 10:28:27;;;;;;;9.07;2.25;;;;;;;23.75;27.52;98718.78;5120326;27;20053;-92
2021/05/27 10:30:54;;;;;;;5.93;2.00;;;;;;;23.88;26.05;98714.09;5126285;27;20406;-92
2021/05/27 10:33:21;;;;;;;4.82;2.00;;;;;;;23.28;26.76;98716.22;5124198;27;20091;-92
2021/05/27 10:35:50;;;;;;;4.20;1.83;;;;;;;23.73;27.80;98739.75;5116639;27;20081;-93
2021/05/27 10:38:17;;;;;;;6.35;2.40;;;;;;;23.52;27.39;98721.50;5116754;27;20043;-91
2021/05/27 10:40:50;;;;;;;3.75;1.98;;;;;;;23.96;27.91;98727.91;5121114;27;20141;-90
2021/05/27 10:43:17;;;;;;;7.97;2.53;;;;;;;24.25;27.59;98708.28;5115488;27;20047;-90
2021/05/27 10:46:16;;;;;;;4.75;1.85;;;;;;;24.38;27.10;98708.97;5122014;27;20020;-92
2021/05/27 10:48:45;;;;;;;6.18;2.20;;;;;;;23.99;28.58;98694.19;5115106;28;21242;-90
2021/05/27 10:54:00;;;;;;;5.57;2.10;;;;;;;24.48;28.71;98691.88;5147816;27;20325;-91
2021/05/27 10:56:40;;;;;;;5.47;2.15;;;;;;;24.29;27.35;98700.72;5111984;28;20040;-91
2021/05/27 10:59:07;;;;;;;6.53;2.45;;;;;;;24.06;27.62;98695.38;5112506;28;20032;-91
2021/05/27 11:02:07;;;;;;;3.55;2.00;;;;;;;24.51;28.03;98692.53;5110528;28;20061;-91
2021/05/27 11:04:39;;;;;;;5.50;2.17;;;;;;;24.72;28.34;98695.25;5113377;28;20035;-91
2021/05/27 11:07:17;;;;;;;3.65;1.95;;;;;;;24.80;27.87;98695.41;5113715;28;20051;-91
2021/05/27 11:09:46;;;;;;;4.05;2.00;;;;;;;24.55;27.27;98690.41;5111701;28;20101;-89
2021/05/27 11:12:24;;;;;;;4.60;2.45;;;;;;;24.46;28.83;98689.28;5113405;27;20143;-90
2021/05/27 11:15:11;;;;;;;4.25;2.20;;;;;;;24.06;28.88;98686.38;5115960;28;20515;-91
2021/05/27 11:17:41;;;;;;;5.05;2.25;;;;;;;24.23;28.83;98683.09;5111538;28;20389;-91
2021/05/27 11:26:24;;;;;;;5.28;2.30;;;;;;;23.24;30.95;98697.59;5105205;27;20364;-94
2021/05/27 11:29:10;;;;;;;8.82;2.20;;;;;;;23.07;30.45;98680.81;5070991;28;20395;-91
2021/05/27 11:31:46;;;;;;;5.57;2.10;;;;;;;23.14;30.83;98681.22;5069326;28;20037;-91
2021/05/27 11:34:12;;;;;;;5.90;2.20;;;;;;;23.39;31.10;98674.66;5070368;28;20032;-88
2021/05/27 11:36:38;;;;;;;5.53;2.33;;;;;;;23.90;30.69;98681.34;5070349;28;20686;-91
2021/05/27 11:39:07;;;;;;;4.80;2.30;;;;;;;23.38;30.71;98681.94;5070654;28;20063;-91
2021/05/27 11:41:38;;;;;;;5.70;2.35;;;;;;;23.39;31.23;98680.06;5069897;28;20049;-91
2021/05/27 11:44:09;;;;;;;4.60;2.22;;;;;;;23.56;31.25;98663.28;5068703;28;20053;-89
2021/05/27 11:46:35;;;;;;;11.45;2.88;;;;;;;23.40;32.07;98642.94;5065495;28;20045;-91
2021/05/27 11:49:01;;;;;;;6.55;2.20;;;;;;;23.38;32.23;98641.22;5069261;28;20063;-91
2021/05/27 11:51:33;;;;;;;5.07;2.38;;;;;;;23.67;30.70;98656.97;5069182;28;20036;-88
2021/05/27 11:54:03;;;;;;;5.38;2.80;;;;;;;24.00;30.16;98663.31;5067326;28;20033;-90
2021/05/27 11:56:43;;;;;;;4.85;1.98;;;;;;;24.14;30.06;98651.28;5070755;28;20133;-90
2021/05/27 11:59:12;;;;;;;6.05;1.90;;;;;;;24.59;29.60;98640.19;5069635;28;20041;-92